Weather observations for the past three days for
Olney-Noble Airport
Imperial (Metric)
Date Time (cdt) Wind (mph) Vis. (mi.) Weather Sky Cond. Temperature (ºF) Relative Humidity Wind Chill (°F) Heat Index (°F) Pressure Precipitation (in)
Air Dwpt 6 hour altimeter (in) sea level (mb) 1 hr 3 hr 6 hr
Max. Min.
09 06:15 SW 3 10.00 Fair CLR 53.6 53.6 100% 29.8 0.0
09 05:55 Calm 10.00 Fair CLR 53.6 53.6 100% 29.79 0.0
09 05:35 S 3 10.00 Fair CLR 53.8 53.8 100% 29.78 0.0
09 05:15 Calm 10.00 Fair CLR 53.6 53.6 100% 29.78 0.0
09 04:35 S 3 10.00 Fair CLR 54 54 100% 29.78 0.0
09 04:15 Calm 10.00 Fair CLR 54.5 54.5 100% 29.77 0.0
09 03:55 Calm 10.00 Fair CLR 54.9 54.9 100% 29.77 0.0
09 03:35 SE 3 10.00 Fair CLR 55.4 55.4 100% 29.76 0.0
09 03:15 SE 5 10.00 Partly Cloudy SCT075 SCT090 55.6 55.6 100% 29.75 0.0
09 02:55 SE 6 10.00 Mostly Cloudy BKN075 BKN090 55.9 55.9 100% 29.75 0.0
09 02:35 SE 5 10.00 Overcast OVC075 56.1 56.1 100% 29.77 0.0
09 02:15 E 3 5.00 Overcast SCT065 OVC075 56.3 56.3 100% 29.78 0.0
09 01:55 Calm 5.00 Overcast SCT008 BKN055 OVC075 56.5 56.5 100% 29.81 0.0
09 01:35 Calm 7.00 Overcast BKN055 OVC075 56.7 56.7 100% 29.83 0.0
09 01:15 NW 5 7.00 Overcast SCT042 BKN049 OVC075 56.8 56.8 100% 29.83 0.0
09 00:55 W 5 7.00 Overcast BKN041 OVC060 56.8 56.8 64.2 56.8 100% 29.84 0.0
09 00:35 NW 8 10.00 Overcast OVC039 57.2 57.2 100% 29.84 0.0
09 00:15 Calm 10.00 Overcast SCT042 SCT049 OVC060 57.2 57.2 100% 29.83 0.0
08 23:55 Calm 7.00 Overcast BKN060 OVC085 57.2 57.2 100% 29.83 0.0
08 23:35 N 3 7.00 Overcast OVC060 57.4 57.4 100% 29.83 0.0
08 23:15 N 3 7.00 Overcast OVC060 57.4 57.4 100% 29.84 0.0
08 22:55 N 5 10.00 Overcast BKN060 OVC080 57.6 57.6 100% 29.84 0.0
08 22:35 N 5 10.00 Overcast SCT019 BKN060 OVC080 57.7 57.7 100% 29.83 0.0
08 22:15 N 3 7.00 Overcast SCT006 SCT029 OVC090 57.7 57.7 100% 29.83 0.0
08 21:55 NE 6 7.00 Overcast BKN060 BKN070 OVC090 58.1 58.1 100% 29.83 0.0
08 21:35 NE 6 10.00 Overcast OVC060 58.3 58.3 100% 29.82 0.0
08 21:15 NE 6 7.00 Overcast SCT038 BKN060 OVC090 58.3 58.3 100% 29.8 0.0
08 20:55 N 5 10.00 Overcast SCT060 SCT070 OVC080 58.6 58.6 100% 29.82 0.0
08 20:35 NE 6 10.00 Overcast SCT044 BKN070 OVC080 58.5 58.5 100% 29.8 0.0
08 20:15 NE 6 4.00 Overcast SCT046 SCT060 OVC080 59 59 100% 29.82 0.0
08 19:55 N 6 7.00 Overcast SCT044 BKN070 OVC080 59.5 58.3 96% 29.82 0.0
08 19:35 NW 6 7.00 Overcast BKN048 BKN075 OVC090 61.2 56.5 85% 29.82 0.0
08 19:15 Calm 10.00 Overcast SCT050 OVC090 63.1 55.6 77% 29.8 0.0
08 18:55 N 7 10.00 Overcast BKN055 OVC065 64.8 55 73.2 64.8 71% 29.8 0.0
08 18:35 S 3 10.00 Overcast BKN065 BKN075 OVC090 69.8 50.9 51% 29.79 0.0
08 17:55 S 7 10.00 Overcast OVC100 70.7 50.9 50% 29.79 0.0
08 17:35 SW 7 10.00 Mostly Cloudy BKN100 70.9 50.2 48% 29.8 0.0
08 17:15 SW 10 10.00 Fair CLR 71.6 50.4 47% 29.8 0.0
08 16:55 S 7 G 17 10.00 Partly Cloudy SCT050 72.1 50.9 47% 29.8 0.0
08 16:35 SW 13 G 20 10.00 Partly Cloudy SCT055 73 52 48% 29.8 0.0
08 16:15 S 8 10.00 Fair CLR 72 52.5 51% 29.8 0.0
08 15:55 SW 5 10.00 Fair CLR 72 52.5 51% 29.82 0.0
08 15:35 SW 5 10.00 Fair CLR 71.1 52.7 52% 29.82 0.0
08 15:15 S 8 G 16 10.00 Fair CLR 70.5 52.2 52% 29.82 0.0
08 14:55 S 9 G 17 10.00 Partly Cloudy SCT090 SCT110 70.9 52.2 52% 29.84 0.0
08 14:35 SW 6 10.00 Mostly Cloudy BKN090 BKN110 68.7 50.5 52% 29.85 0.0
08 14:15 SW 6 10.00 Overcast OVC110 68.7 50.9 53% 29.86 0.0
08 13:55 SW 9 10.00 Overcast OVC110 69.4 50.4 51% 29.86 0.0
08 13:35 S 13 G 18 10.00 Partly Cloudy SCT120 71.4 50.7 48% 29.86 0.0
08 13:15 S 10 G 16 10.00 Mostly Cloudy BKN100 71.4 50.9 48% 29.87 0.0
08 12:55 SW 8 10.00 Overcast OVC100 70 49.6 70.7 53.4 49% 29.87 0.0
08 12:35 S 9 G 16 10.00 Mostly Cloudy BKN110 70.2 50.2 49% 29.88 0.0
08 12:15 S 10 G 16 10.00 Fair CLR 69.3 50.9 52% 29.9 0.0
08 11:55 SW 10 G 16 10.00 Partly Cloudy SCT100 69.3 50.7 52% 29.91 0.0
08 11:35 S 12 G 20 10.00 Partly Cloudy SCT100 68.5 49.6 51% 29.92 0.0
08 11:15 SW 8 G 22 10.00 Fair CLR 68.4 50.4 53% 29.93 0.0
08 10:55 SW 9 G 20 10.00 Fair CLR 67.3 48.7 52% 29.93 0.0
08 10:35 S 12 G 17 10.00 Fair CLR 66.4 49.1 54% 29.93 0.0
08 10:15 S 10 G 16 10.00 Fair CLR 64.8 48.9 57% 29.94 0.0
08 09:55 S 8 10.00 Partly Cloudy SCT100 62.8 48.2 59% 29.95 0.0
08 09:35 S 9 10.00 Overcast OVC095 61.3 47.5 61% 29.95 0.0
08 09:15 S 8 10.00 Overcast OVC095 59.9 46.8 62% 29.95 0.0
08 08:55 S 7 10.00 Overcast OVC095 59.4 45.5 60% 29.96 0.0
08 08:35 S 7 10.00 Overcast OVC095 58.1 44.4 61% 29.97 0.0
08 08:15 S 7 10.00 Partly Cloudy SCT095 58.1 44.1 60% 29.97 0.0
08 07:55 S 6 10.00 Mostly Cloudy BKN095 56.8 43 60% 29.96 0.0
08 07:35 SW 7 10.00 Mostly Cloudy BKN095 55.8 42.1 60% 29.96 0.0
08 07:15 S 6 10.00 Fair CLR 54.3 41 61% 29.96 0.0
08 06:55 S 7 10.00 Fair CLR 53.2 40.3 53.2 49.3 62% 29.96 0.0
08 06:35 SW 6 10.00 Fair CLR 52 39.9 64% 29.96 0.0
08 06:15 S 6 10.00 Fair CLR 50.7 39.6 66% 29.95 0.0
08 05:55 S 5 10.00 Fair CLR 50 39.6 68% 49 29.95 0.0
08 05:35 S 5 10.00 Fair CLR 50.4 39.4 66% 29.95 0.0
08 05:15 S 5 10.00 Fair CLR 49.6 39.9 69% 48 29.95 0.0
08 04:55 S 5 10.00 Fair CLR 49.8 39.7 68% 49 29.95 0.0
08 04:35 S 6 10.00 Fair CLR 49.8 39.7 68% 48 29.95 0.0
08 04:15 S 7 10.00 Fair CLR 49.3 40.1 71% 47 29.95 0.0
08 03:55 S 6 10.00 Fair CLR 50 39.9 68% 48 29.95 0.0
08 03:35 S 7 10.00 Fair CLR 49.5 40.1 70% 47 29.96 0.0
08 03:15 S 6 10.00 Fair CLR 50 40.1 69% 48 29.96 0.0
08 02:55 S 6 10.00 Fair CLR 51.1 39.4 64% 29.97 0.0
08 02:35 S 3 10.00 Fair CLR 51.6 39 62% 29.97 0.0
08 02:15 S 6 10.00 Fair CLR 51.8 39.4 63% 29.97 0.0
08 01:55 S 7 10.00 Fair CLR 51.8 39.4 63% 29.98 0.0
08 01:35 S 7 10.00 Fair CLR 52.7 39 60% 29.98 0.0
08 01:15 S 6 10.00 Fair CLR 52.9 38.8 59% 29.98 0.0
08 00:55 S 6 10.00 Fair CLR 53.2 38.7 62.2 52.9 58% 29.99 0.0
08 00:15 S 7 10.00 Fair CLR 53.6 39 58% 29.99 0.0
07 23:55 S 7 10.00 Fair CLR 53.2 40.3 62% 29.99 0.0
07 23:35 S 6 10.00 Fair CLR 53.8 40.3 60% 29.99 0.0
07 23:15 S 5 10.00 Fair CLR 53.2 41 63% 29.98 0.0
07 22:55 S 6 10.00 Fair CLR 53.1 41.7 66% 29.98 0.0
07 22:15 S 6 10.00 Fair CLR 53.8 41.9 64% 29.98 0.0
07 21:55 S 5 10.00 Fair CLR 53.6 41.9 65% 29.98 0.0
07 21:35 S 3 10.00 Fair CLR 54 42.6 66% 29.98 0.0
07 21:15 S 3 10.00 Fair CLR 54.5 41.9 63% 29.98 0.0
07 20:55 S 5 10.00 Fair CLR 55.4 41.7 60% 29.97 0.0
07 20:35 S 5 10.00 Fair CLR 56.3 42.4 60% 29.96 0.0
07 20:15 S 3 10.00 Fair CLR 57.2 41.4 56% 29.96 0.0
07 19:55 S 5 10.00 Fair CLR 59 40.6 51% 29.95 0.0
07 19:35 S 3 10.00 Fair CLR 60.4 38.5 44% 29.95 0.0
07 19:15 SW 3 10.00 Fair CLR 61.7 37.2 40% 29.95 0.0
07 18:55 S 6 10.00 Fair CLR 62.4 36.5 64.6 60.1 38% 29.95 0.0
07 18:35 SW 6 10.00 Fair CLR 63 35.8 36% 29.95 0.0
07 18:15 S 6 10.00 Fair CLR 63.5 36.9 37% 29.96 0.0
07 17:55 SW 6 10.00 Fair CLR 63.5 36.1 36% 29.96 0.0
07 17:35 W 5 10.00 Fair CLR 63.9 36 36% 29.97 0.0
07 17:15 SW 5 10.00 Partly Cloudy SCT075 63.9 34.7 34% 29.97 0.0
07 16:55 SW 5 10.00 Partly Cloudy SCT075 64.4 35.6 34% 29.97 0.0
07 16:35 W 10 10.00 Partly Cloudy SCT075 63.9 36.5 36% 29.98 0.0
07 16:15 SW 6 10.00 Partly Cloudy SCT075 64 35.2 34% 29.98 0.0
07 15:55 SW 8 10.00 Fair CLR 63.7 35.2 35% 29.98 0.0
07 15:35 W 6 10.00 Fair CLR 63.1 34.3 34% 29.98 0.0
07 14:55 SW 3 10.00 Partly Cloudy SCT075 61.9 34.5 36% 30 0.0
07 14:35 W 7 10.00 Partly Cloudy SCT075 63.1 35.8 36% 30 0.0
07 14:15 Calm 10.00 Fair CLR 61.7 33.8 35% 30.01 0.0
07 13:55 W 7 10.00 Fair CLR 62.2 35.6 37% 30.02 0.0
07 13:35 W 9 10.00 Fair CLR 61.5 35.4 38% 30.02 0.0
07 13:15 SW 6 10.00 Fair CLR 60.8 33.4 36% 30.03 0.0
07 12:55 N 3 10.00 Fair CLR 60.1 32.9 60.4 43 36% 30.03 0.0
07 12:35 NW 7 10.00 Fair CLR 60.1 34.5 38% 30.04 0.0
07 12:15 W 5 10.00 Fair CLR 59.5 32.9 37% 30.04 0.0
07 11:55 S 3 10.00 Fair CLR 58.6 32.2 37% 30.05 0.0
07 11:35 SW 7 10.00 Fair CLR 58.8 33.8 39% 30.05 0.0
07 11:15 SW 5 10.00 Fair CLR 58.3 32.5 38% 30.06 0.0
07 10:55 SW 5 10.00 Fair CLR 58.1 34.9 42% 30.06 0.0
07 10:35 W 3 10.00 Fair CLR 57.4 36.3 45% 30.06 0.0
07 10:15 Calm 10.00 Fair CLR 56.3 31.8 40% 30.06 0.0
07 09:55 Calm 10.00 Fair CLR 55.4 33.6 44% 30.07 0.0
07 09:35 S 5 10.00 Fair CLR 55.4 39.4 55% 30.07 0.0
07 09:15 S 3 10.00 Fair CLR 53.2 39.9 61% 30.07 0.0
07 08:55 S 3 10.00 Fair CLR 52 39.6 63% 30.07 0.0
07 08:35 Calm 10.00 Fair CLR 50.9 38.5 63% 30.06 0.0
07 08:15 Calm 10.00 Fair CLR 49.8 38.5 65% 30.06 0.0
07 07:55 Calm 10.00 Fair CLR 48.7 40.8 74% 30.06 0.0
07 07:35 Calm 10.00 Fair CLR 46.8 42.3 84% 30.06 0.0
07 07:15 Calm 10.00 Fair CLR 44.8 43.3 95% 30.05 0.0
07 06:55 Calm 10.00 Fair CLR 42.8 42.8 48.2 40.1 100% 30.05 0.0
07 06:35 Calm 10.00 Fair CLR 41.5 41.5 100% 30.05 0.0
07 06:15 Calm 10.00 Fair CLR 40.5 40.5 100% 30.04 0.0
07 05:55 Calm 10.00 Fair CLR 40.3 40.3 100% 30.04 0.0
07 05:35 Calm 10.00 Fair CLR 40.3 40.3 100% 30.04 0.0
07 05:15 Calm 10.00 Fair CLR 40.6 40.3 99% 30.04 0.0
07 04:55 Calm 10.00 Fair CLR 40.8 40.5 99% 30.05 0.0
07 04:35 Calm 10.00 Fair CLR 41.5 39.7 93% 30.05 0.0
07 04:15 Calm 10.00 Fair CLR 41.9 39.6 91% 30.05 0.0
07 03:55 Calm 10.00 Fair CLR 42.3 38.8 88% 30.05 0.0
07 03:35 Calm 10.00 Fair CLR 43.2 37.6 81% 30.04 0.0
07 03:15 Calm 10.00 Fair CLR 45.5 35.8 69% 30.04 0.0
07 02:55 N 3 10.00 Fair CLR 46 36 68% 30.04 0.0
07 02:35 N 3 10.00 Fair CLR 46.4 36 67% 30.03 0.0
07 02:15 N 3 10.00 Fair CLR 46.8 36.3 67% 30.03 0.0
07 01:55 N 5 10.00 Fair CLR 47.5 36.5 66% 46 30.03 0.0
07 01:35 N 6 10.00 Fair CLR 47.8 36.7 65% 46 30.04 0.0
07 01:15 N 3 10.00 Fair CLR 46.4 40.6 80% 30.04 0.0
07 00:55 N 3 10.00 Fair CLR 48 39 58.5 46.6 71% 30.04 0.0
07 00:35 N 3 10.00 Fair CLR 46.8 41.2 81% 30.04 0.0
06 23:55 N 3 10.00 Fair CLR 48.4 40.6 75% 30.03 0.0
06 23:35 N 3 10.00 Fair CLR 48.4 41.9 78% 30.03 0.0
06 23:15 Calm 10.00 Fair CLR 48.6 42.6 80% 30.03 0.0
06 22:55 N 3 10.00 Fair CLR 49.1 43.2 80% 30.03 0.0
06 22:35 NW 3 10.00 Fair CLR 50.5 41.9 72% 30.03 0.0
06 22:15 NW 3 10.00 Fair CLR 50.2 43.7 79% 30.03 0.0
06 21:55 Calm 10.00 Fair CLR 49.1 46.9 92% 30.03 0.0
06 21:35 Calm 10.00 Fair CLR 49.1 44.8 85% 30.03 0.0
06 21:15 Calm 10.00 Fair CLR 50.2 43.3 77% 30.02 0.0
06 20:55 Calm 10.00 Fair CLR 52.7 40.1 62% 30.01 0.0
06 20:35 Calm 10.00 Fair CLR 53.2 40.6 62% 30 0.0
06 20:15 N 5 10.00 Fair CLR 54.5 40.1 58% 30 0.0
06 19:55 N 6 10.00 Fair CLR 55.6 39 54% 30 0.0
06 19:35 N 5 10.00 Fair CLR 56.7 40.6 55% 30 0.0
06 19:15 N 6 10.00 Partly Cloudy SCT060 57.4 39.7 52% 29.99 0.0
06 18:55 N 8 10.00 Partly Cloudy SCT060 58.5 39.7 60.8 55.4 50% 29.98 0.0
06 18:35 N 6 10.00 Partly Cloudy SCT048 SCT060 58.8 41 52% 29.98 0.0
06 18:15 NW 10 10.00 Fair CLR 59.2 41.9 53% 29.98 0.0
06 17:55 NW 10 10.00 Partly Cloudy SCT065 59.4 41.7 52% 29.98 0.0
06 17:35 NW 12 G 18 10.00 Mostly Cloudy BKN065 59.4 43.7 56% 29.98 0.0
06 17:15 NW 7 10.00 Mostly Cloudy BKN075 59.4 44.4 58% 29.99 0.0
06 16:55 NW 6 10.00 Overcast BKN055 OVC075 59.5 44.2 57% 29.99 0.0
06 16:35 NW 10 10.00 Overcast SCT043 OVC055 58.1 43 57% 29.99 0.0
06 16:15 NW 12 10.00 Mostly Cloudy BKN043 BKN055 BKN070 58.6 42.6 55% 29.99 0.0
06 15:55 NW 7 10.00 Mostly Cloudy SCT043 SCT050 BKN065 59.4 44.1 57% 30 0.0
06 15:35 Calm 10.00 Mostly Cloudy SCT043 SCT050 BKN055 59.9 44.1 56% 30 0.0
06 15:15 NW 6 10.00 Mostly Cloudy SCT039 BKN090 59.2 43.5 56% 30 0.0
06 14:55 NW 7 10.00 Mostly Cloudy BKN090 59.2 43.5 56% 30 0.0
06 14:35 NW 8 10.00 Mostly Cloudy SCT032 SCT075 BKN090 58.6 45.7 62% 29.99 0.0
06 14:15 NW 9 10.00 Overcast SCT030 OVC075 57.4 44.2 62% 30 0.0
06 13:55 W 9 10.00 Overcast BKN030 BKN075 OVC090 57.6 45.5 64% 30 0.0
06 13:35 NW 6 10.00 Overcast SCT030 BKN075 OVC090 56.7 45 65% 30 0.0
06 13:15 NW 6 10.00 Overcast SCT024 OVC075 55.8 45.1 68% 30.01 0.0
06 12:55 W 7 7.00 Overcast OVC075 55.2 45.7 55.6 47.5 70% 30.01 0.0
06 12:35 NW 6 10.00 Overcast OVC075 55.2 45.9 71% 30 0.0
06 12:15 NW 7 10.00 Overcast SCT021 OVC075 54.7 45.3 71% 30.01 0.0
06 11:55 W 6 10.00 Overcast SCT021 OVC075 55.2 46.4 72% 30.01 0.0
06 11:35 NW 7 10.00 Overcast SCT019 BKN075 OVC090 54.9 45.1 70% 30 0.0
06 11:15 NW 5 10.00 Overcast BKN075 OVC090 54.1 45.7 73% 30 0.0
06 10:55 W 5 10.00 Overcast OVC075 52.9 45.5 76% 30 0.0
06 10:35 W 6 10.00 Overcast OVC075 52.7 45 75% 30.01 0.0
06 10:15 NW 6 10.00 Overcast OVC075 52.3 44.2 74% 30 0.0
06 09:55 W 5 10.00 Overcast SCT070 OVC085 52.3 45.3 77% 29.98 0.0
06 09:35 NW 7 10.00 Overcast BKN070 OVC085 51.8 44.8 77% 29.99 0.0
06 09:15 NW 6 10.00 Overcast OVC070 51.8 45.7 80% 29.98 0.0
06 08:55 NW 7 10.00 Overcast BKN070 OVC100 50.9 46 84% 29.97 0.0
06 08:35 NW 10 10.00 Overcast OVC100 50.2 46.6 88% 29.97 0.0
06 08:15 NW 5 10.00 Overcast OVC100 48.9 46.6 92% 48 29.95 0.0
06 07:55 NW 7 10.00 Overcast OVC090 48.4 46.4 93% 46 29.96 0.0
06 07:35 NW 7 10.00 Overcast OVC100 48.2 46.8 95% 46 29.96 0.0
06 07:15 NW 5 10.00 Overcast OVC100 48 46.9 96% 47 29.94 0.0
06 06:55 NW 5 10.00 Overcast OVC110 47.5 46.8 47.5 46.2 97% 46 29.93 0.0 0.01
06 06:35 NW 5 10.00 Overcast BKN100 OVC120 47.3 47.3 100% 46 29.93 0.0
Date Time (cdt) Wind (mph) Vis. (mi.) Weather Sky Cond. Air Dwpt Max. Min. Relative Humidity Wind Chill (°F) Heat Index (°F) altimeter (in) sea level (mb) 1 hr 3 hr 6 hr
6 hour
Temperature (ºF) Pressure Precipitation (in)